Time;durP1;ratioP1;P1;durP2;ratioP2;P2;SDS_P1;SDS_P2;PMS_P1;PMS_P2;Temp;Humidity;BMP_temperature;BMP_pressure;BME280_temperature;BME280_humidity;BME280_pressure;Samples;Min_cycle;Max_cycle;Signal;HPM_P1;HPM_P2
2022/08/10 00:00:50;;;;;;;0.00;0.00;;;17.20;99.90;;;;;;5054285;28;20025;-73
2022/08/10 00:03:15;;;;;;;0.63;0.00;;;17.20;99.90;;;;;;5054079;28;20029;-72
2022/08/10 00:05:41;;;;;;;0.32;0.00;;;17.10;99.90;;;;;;5054310;28;20067;-72
2022/08/10 00:08:06;;;;;;;1.77;0.00;;;17.20;99.90;;;;;;5054079;28;20024;-72
2022/08/10 00:10:32;;;;;;;0.90;0.00;;;17.20;99.90;;;;;;5052969;28;20047;-72
2022/08/10 00:12:58;;;;;;;0.00;0.00;;;17.20;99.90;;;;;;5053332;28;20041;-72
2022/08/10 00:15:23;;;;;;;0.00;0.00;;;17.20;99.90;;;;;;5053816;28;20021;-72
2022/08/10 00:17:49;;;;;;;0.08;0.00;;;17.10;99.90;;;;;;5054058;28;20017;-72
2022/08/10 00:20:15;;;;;;;0.00;0.00;;;17.10;99.90;;;;;;5053831;28;20182;-72
2022/08/10 00:22:41;;;;;;;0.00;0.00;;;17.10;99.90;;;;;;5053825;28;20031;-72
2022/08/10 00:25:07;;;;;;;0.30;0.00;;;17.00;99.90;;;;;;5053678;28;20017;-72
2022/08/10 00:27:33;;;;;;;0.10;0.00;;;17.00;99.90;;;;;;5053925;28;20014;-72
2022/08/10 00:29:59;;;;;;;0.00;0.00;;;16.90;99.90;;;;;;5054578;28;20021;-71
2022/08/10 00:32:25;;;;;;;1.85;0.00;;;16.90;99.90;;;;;;5053803;28;20029;-71
2022/08/10 00:34:51;;;;;;;0.20;0.00;;;16.90;99.90;;;;;;5053491;28;20057;-71
2022/08/10 00:37:17;;;;;;;0.30;0.00;;;16.80;99.90;;;;;;5053661;28;20036;-71
2022/08/10 00:39:44;;;;;;;0.13;0.00;;;16.80;99.90;;;;;;5053544;28;20029;-71
2022/08/10 00:42:12;;;;;;;0.13;0.00;;;16.80;99.90;;;;;;5053424;28;20113;-71
2022/08/10 00:44:43;;;;;;;0.10;0.00;;;16.80;99.90;;;;;;5053391;28;20035;-71
2022/08/10 00:47:09;;;;;;;2.40;0.00;;;16.70;99.90;;;;;;5052177;28;20108;-71
2022/08/10 00:49:35;;;;;;;0.85;0.00;;;16.70;99.90;;;;;;5053428;28;20036;-71
2022/08/10 00:52:01;;;;;;;1.90;0.00;;;16.60;99.90;;;;;;5053288;28;20462;-71
2022/08/10 00:54:28;;;;;;;1.90;0.00;;;16.60;99.90;;;;;;5053158;28;20472;-71
2022/08/10 00:56:56;;;;;;;0.40;0.00;;;16.60;99.90;;;;;;5053636;28;20048;-74
2022/08/10 00:59:22;;;;;;;;;;;16.60;99.90;;;;;;5052594;28;20013;-74
2022/08/10 01:01:48;;;;;;;0.32;0.00;;;16.50;99.90;;;;;;5053589;28;20346;-73
2022/08/10 01:04:14;;;;;;;0.65;0.00;;;16.50;99.90;;;;;;5053553;28;20430;-74
2022/08/10 01:06:54;;;;;;;0.00;0.00;;;16.50;99.90;;;;;;5053884;28;20025;-74
2022/08/10 01:09:28;;;;;;;0.10;0.00;;;16.50;99.90;;;;;;5052094;28;20482;-74
2022/08/10 01:12:17;;;;;;;0.40;0.00;;;16.50;99.90;;;;;;5053441;28;20033;-73
2022/08/10 01:14:59;;;;;;;0.05;0.00;;;16.40;99.90;;;;;;5053278;28;20041;-74
2022/08/10 01:17:44;;;;;;;0.95;0.00;;;16.40;99.90;;;;;;5053257;28;20021;-74
2022/08/10 01:20:22;;;;;;;0.47;0.10;;;16.40;99.90;;;;;;5053127;28;20025;-73
2022/08/10 01:23:09;;;;;;;1.27;0.10;;;16.40;99.90;;;;;;5053083;28;20029;-71
2022/08/10 01:25:55;;;;;;;0.90;0.00;;;16.50;99.90;;;;;;5054590;28;20021;-71
2022/08/10 01:28:46;;;;;;;0.10;0.00;;;16.50;99.90;;;;;;5055737;28;20021;-71
2022/08/10 01:31:18;;;;;;;1.55;0.00;;;16.40;99.90;;;;;;5056973;28;20031;-71
2022/08/10 01:33:50;;;;;;;0.30;0.00;;;16.50;99.90;;;;;;5057467;28;20027;-71
2022/08/10 01:36:19;;;;;;;0.10;0.00;;;17.10;99.90;;;;;;5057191;28;20029;-71
2022/08/10 01:38:50;;;;;;;0.25;0.00;;;16.40;99.90;;;;;;5056904;28;20105;-71
2022/08/10 01:41:26;;;;;;;0.10;0.00;;;16.40;99.90;;;;;;5056989;28;20029;-71
2022/08/10 01:44:04;;;;;;;0.10;0.10;;;16.40;99.90;;;;;;5057396;28;20059;-71
2022/08/10 01:46:32;;;;;;;0.20;0.00;;;16.50;99.90;;;;;;5056705;28;20091;-71
2022/08/10 01:49:01;;;;;;;0.08;0.00;;;16.40;99.90;;;;;;5056698;28;20025;-71
2022/08/10 01:51:31;;;;;;;;;;;16.40;99.90;;;;;;5056942;28;20490;-71
2022/08/10 01:54:01;;;;;;;0.65;0.13;;;16.40;99.90;;;;;;5056518;28;19908;-71
2022/08/10 01:56:32;;;;;;;0.68;0.00;;;16.40;99.90;;;;;;5057135;28;20469;-71
2022/08/10 01:59:08;;;;;;;0.17;0.10;;;16.40;99.90;;;;;;5056524;28;20393;-72
2022/08/10 02:01:41;;;;;;;0.40;0.00;;;16.30;99.90;;;;;;5056961;28;20021;-73
2022/08/10 02:04:09;;;;;;;3.53;0.10;;;16.30;99.90;;;;;;5056773;28;20554;-73
2022/08/10 02:06:42;;;;;;;0.10;0.00;;;16.30;99.90;;;;;;5056284;28;20028;-73
2022/08/10 02:09:10;;;;;;;0.57;0.00;;;16.30;99.90;;;;;;5055052;28;20501;-73
2022/08/10 02:11:37;;;;;;;1.75;0.00;;;16.30;99.90;;;;;;5056412;28;20021;-72
2022/08/10 02:14:03;;;;;;;0.10;0.00;;;16.30;99.90;;;;;;5056149;28;20451;-72
2022/08/10 02:16:31;;;;;;;1.20;0.00;;;16.20;99.90;;;;;;5054958;28;20096;-72
2022/08/10 02:18:58;;;;;;;0.43;0.00;;;16.20;99.90;;;;;;5056410;28;20025;-73
2022/08/10 02:21:26;;;;;;;0.60;0.10;;;16.20;99.90;;;;;;5056683;28;20021;-73
2022/08/10 02:23:52;;;;;;;2.63;0.38;;;16.20;99.90;;;;;;5056635;28;20021;-73
2022/08/10 02:26:18;;;;;;;0.90;0.10;;;16.20;99.90;;;;;;5056247;28;20036;-73
2022/08/10 02:28:45;;;;;;;0.45;0.15;;;16.10;99.90;;;;;;5056455;28;20470;-73
2022/08/10 02:31:14;;;;;;;0.10;0.00;;;16.10;99.90;;;;;;5056050;28;20028;-73
2022/08/10 02:33:42;;;;;;;0.68;0.00;;;16.10;99.90;;;;;;5055779;28;20066;-73
2022/08/10 02:36:10;;;;;;;0.20;0.20;;;16.10;99.90;;;;;;5055370;28;20425;-74
2022/08/10 02:38:41;;;;;;;2.55;0.20;;;16.00;99.90;;;;;;5055782;28;20082;-74
2022/08/10 02:41:19;;;;;;;3.05;0.20;;;16.00;99.90;;;;;;5056026;28;20509;-74
2022/08/10 02:43:49;;;;;;;1.13;0.10;;;15.90;99.90;;;;;;5055787;28;20033;-74
2022/08/10 02:46:24;;;;;;;1.65;0.45;;;16.00;99.90;;;;;;5055921;28;20513;-74
2022/08/10 02:49:16;;;;;;;1.13;0.05;;;16.00;99.90;;;;;;5055620;28;20025;-73
2022/08/10 02:51:45;;;;;;;1.65;0.10;;;16.00;99.90;;;;;;5055509;28;20025;-74
2022/08/10 02:54:19;;;;;;;0.77;0.00;;;15.90;99.90;;;;;;5055507;28;20028;-73
2022/08/10 02:56:55;;;;;;;0.10;0.10;;;15.90;99.90;;;;;;5056037;28;20347;-74
2022/08/10 02:59:30;;;;;;;2.28;0.30;;;15.90;99.90;;;;;;5054154;28;20040;-74
2022/08/10 03:01:58;;;;;;;1.38;0.20;;;15.90;99.90;;;;;;5055396;28;20028;-74
2022/08/10 03:04:35;;;;;;;1.77;0.10;;;15.90;99.90;;;;;;5055647;28;20025;-74
2022/08/10 03:07:04;;;;;;;0.55;0.10;;;15.90;99.90;;;;;;5055420;28;20079;-74
2022/08/10 03:09:32;;;;;;;3.08;0.22;;;15.80;99.90;;;;;;5055491;28;20040;-73
2022/08/10 03:11:59;;;;;;;1.20;0.10;;;15.90;99.90;;;;;;5055313;28;20371;-73
2022/08/10 03:14:26;;;;;;;2.00;0.17;;;15.80;99.90;;;;;;5055114;28;20434;-73
2022/08/10 03:16:54;;;;;;;0.63;0.22;;;15.80;99.90;;;;;;5055002;28;20075;-73
2022/08/10 03:19:20;;;;;;;2.20;0.20;;;15.80;99.90;;;;;;5053658;28;20024;-73
2022/08/10 03:21:48;;;;;;;1.25;0.20;;;15.80;99.90;;;;;;5054816;28;20086;-73
2022/08/10 03:24:16;;;;;;;1.05;0.28;;;15.80;99.90;;;;;;5054900;28;20104;-73
2022/08/10 03:26:42;;;;;;;2.80;0.30;;;15.70;99.90;;;;;;5054953;28;20035;-73
2022/08/10 03:29:10;;;;;;;1.30;0.22;;;15.70;99.90;;;;;;5055058;28;20476;-73
2022/08/10 03:31:36;;;;;;;2.90;0.30;;;15.60;99.90;;;;;;5054756;28;20035;-73
2022/08/10 03:34:03;;;;;;;0.25;0.10;;;15.70;99.90;;;;;;5054980;28;20070;-73
2022/08/10 03:36:30;;;;;;;0.88;0.50;;;15.60;99.90;;;;;;5054886;28;20155;-73
2022/08/10 03:38:56;;;;;;;2.72;0.20;;;15.60;99.90;;;;;;5054561;28;20021;-73
2022/08/10 03:41:35;;;;;;;1.15;0.22;;;15.60;99.90;;;;;;5053277;28;20028;-73
2022/08/10 03:44:03;;;;;;;1.52;0.52;;;15.60;99.90;;;;;;5055049;28;20047;-73
2022/08/10 03:46:31;;;;;;;4.70;0.43;;;15.60;99.90;;;;;;5055077;28;20043;-73
2022/08/10 03:49:00;;;;;;;1.98;0.65;;;15.60;99.90;;;;;;5053678;28;20021;-73
2022/08/10 03:51:25;;;;;;;0.95;0.50;;;15.60;99.90;;;;;;5054244;28;20108;-73
2022/08/10 03:53:52;;;;;;;1.40;0.35;;;15.60;99.90;;;;;;5054189;28;20132;-73
2022/08/10 03:56:18;;;;;;;1.77;0.60;;;15.60;99.90;;;;;;5052925;28;20410;-73
2022/08/10 03:58:44;;;;;;;2.45;0.80;;;15.70;99.90;;;;;;5054181;28;20021;-73
2022/08/10 04:01:10;;;;;;;1.85;1.20;;;15.60;99.90;;;;;;5052926;28;20021;-73
2022/08/10 04:03:39;;;;;;;4.05;1.27;;;15.70;99.90;;;;;;5052956;28;20124;-73
2022/08/10 04:06:05;;;;;;;2.00;0.90;;;15.50;99.90;;;;;;5054157;28;20036;-73
2022/08/10 04:08:32;;;;;;;2.88;0.73;;;15.60;99.90;;;;;;5053957;28;20060;-74
2022/08/10 04:10:57;;;;;;;1.13;0.65;;;15.50;99.90;;;;;;5053842;28;20060;-73
2022/08/10 04:13:23;;;;;;;2.28;1.55;;;15.50;99.90;;;;;;5053667;28;20068;-73
2022/08/10 04:15:49;;;;;;;1.65;0.63;;;15.50;99.90;;;;;;5053962;28;20111;-74
2022/08/10 04:18:14;;;;;;;1.30;0.70;;;15.50;99.90;;;;;;5053931;28;20021;-74
2022/08/10 04:20:54;;;;;;;1.90;0.73;;;15.50;99.90;;;;;;5054154;28;20036;-74
2022/08/10 04:23:24;;;;;;;5.78;1.55;;;15.40;99.90;;;;;;5053819;28;20025;-74
2022/08/10 04:25:50;;;;;;;2.22;1.40;;;15.40;99.90;;;;;;5054038;28;20021;-74
2022/08/10 04:28:17;;;;;;;2.47;1.30;;;15.40;99.90;;;;;;5052499;28;20032;-73
2022/08/10 04:30:44;;;;;;;5.65;1.35;;;15.40;99.90;;;;;;5053590;28;20029;-73
2022/08/10 04:33:14;;;;;;;8.85;1.38;;;15.40;99.90;;;;;;5053748;28;20036;-72
2022/08/10 04:35:40;;;;;;;2.53;1.02;;;15.30;99.90;;;;;;5053692;28;20112;-72
2022/08/10 04:38:08;;;;;;;1.95;1.23;;;15.40;99.90;;;;;;5052272;28;20025;-72
2022/08/10 04:40:33;;;;;;;2.63;1.13;;;15.40;99.90;;;;;;5053497;28;20025;-72
2022/08/10 04:43:02;;;;;;;1.63;1.20;;;15.40;99.90;;;;;;5053421;28;20100;-72
2022/08/10 04:45:28;;;;;;;;;;;15.40;99.90;;;;;;5053854;28;20024;-72
2022/08/10 04:47:53;;;;;;;3.00;1.40;;;15.40;99.90;;;;;;5053488;28;20425;-73
2022/08/10 04:50:19;;;;;;;4.75;2.10;;;15.40;99.90;;;;;;5053912;28;20462;-73
2022/08/10 04:52:45;;;;;;;3.83;1.45;;;15.40;99.90;;;;;;5053306;28;20497;-73
2022/08/10 04:55:11;;;;;;;4.97;1.52;;;15.50;99.90;;;;;;5052031;28;20024;-73
2022/08/10 04:57:36;;;;;;;4.93;1.83;;;16.00;99.90;;;;;;5053283;28;20470;-73
2022/08/10 05:00:03;;;;;;;6.45;1.48;;;15.60;99.90;;;;;;5053405;28;20025;-73
2022/08/10 05:02:29;;;;;;;15.82;2.03;;;15.60;99.90;;;;;;5053120;28;20453;-73
2022/08/10 05:04:54;;;;;;;2.10;1.50;;;15.70;99.90;;;;;;5053214;28;20052;-73
2022/08/10 05:07:20;;;;;;;4.57;1.85;;;15.80;99.90;;;;;;5051908;28;20427;-73
2022/08/10 05:09:47;;;;;;;3.38;1.60;;;15.80;99.90;;;;;;5053141;28;20032;-73
2022/08/10 05:12:13;;;;;;;4.60;1.48;;;15.90;99.90;;;;;;5051676;28;20029;-73
2022/08/10 05:14:38;;;;;;;4.22;1.45;;;15.90;99.90;;;;;;5053021;28;20028;-73
2022/08/10 05:17:04;;;;;;;3.03;1.67;;;16.00;99.90;;;;;;5051844;28;20163;-73
2022/08/10 05:19:30;;;;;;;6.40;1.77;;;16.10;99.90;;;;;;5051809;28;20504;-73
2022/08/10 05:21:55;;;;;;;4.35;1.80;;;16.10;99.90;;;;;;5053003;28;20025;-73
2022/08/10 05:24:21;;;;;;;4.30;2.05;;;16.10;99.90;;;;;;5052949;28;20162;-73
2022/08/10 05:26:46;;;;;;;5.20;2.10;;;16.20;99.90;;;;;;5052981;28;20100;-73
2022/08/10 05:29:12;;;;;;;2.50;1.77;;;16.30;99.90;;;;;;5051703;28;20025;-72
2022/08/10 05:31:40;;;;;;;3.47;1.80;;;16.30;99.90;;;;;;5051932;28;20032;-72
2022/08/10 05:34:05;;;;;;;4.43;1.17;;;16.40;99.90;;;;;;5051594;28;20049;-72
2022/08/10 05:36:33;;;;;;;3.85;2.20;;;16.50;99.90;;;;;;5053140;28;20532;-73
2022/08/10 05:39:00;;;;;;;3.45;1.73;;;16.50;99.90;;;;;;5052766;28;20021;-73
2022/08/10 05:41:27;;;;;;;2.65;1.38;;;16.60;99.90;;;;;;5052842;28;20040;-73
2022/08/10 05:43:54;;;;;;;3.55;1.45;;;16.70;99.90;;;;;;5052847;28;20087;-73
2022/08/10 05:46:19;;;;;;;3.50;1.35;;;16.80;99.90;;;;;;5051567;28;20063;-73
2022/08/10 05:48:45;;;;;;;5.03;1.50;;;16.80;99.90;;;;;;5051520;28;20037;-73
2022/08/10 05:51:10;;;;;;;4.28;1.42;;;16.90;99.90;;;;;;5052980;28;20021;-73
2022/08/10 05:53:37;;;;;;;3.03;1.45;;;17.00;99.90;;;;;;5052685;28;20493;-73
2022/08/10 05:56:05;;;;;;;4.53;1.40;;;17.10;99.90;;;;;;5051462;28;20049;-73
2022/08/10 05:58:31;;;;;;;3.08;1.50;;;17.20;99.90;;;;;;5052730;28;20493;-73
2022/08/10 06:01:00;;;;;;;3.60;1.63;;;17.30;99.90;;;;;;5052618;28;20021;-73
2022/08/10 06:03:32;;;;;;;1.30;1.05;;;17.30;99.90;;;;;;5051568;28;20021;-74
2022/08/10 06:05:59;;;;;;;3.35;1.50;;;17.40;99.90;;;;;;5053200;28;20031;-74
2022/08/10 06:08:30;;;;;;;3.47;1.73;;;17.50;99.90;;;;;;5052699;28;20021;-74
2022/08/10 06:11:01;;;;;;;4.15;0.90;;;17.60;99.90;;;;;;5051468;28;20068;-74
2022/08/10 06:16:14;;;;;;;1.75;1.30;;;17.80;99.90;;;;;;5056252;28;20032;-74
2022/08/10 06:18:42;;;;;;;3.75;1.60;;;17.90;99.90;;;;;;5054932;28;20099;-74
2022/08/10 06:21:10;;;;;;;2.08;1.25;;;18.00;99.90;;;;;;5056013;28;20099;-74
2022/08/10 06:23:37;;;;;;;4.28;1.40;;;18.10;99.90;;;;;;5056318;28;20032;-74
2022/08/10 06:26:05;;;;;;;4.60;1.30;;;18.20;99.90;;;;;;5056256;28;20486;-74
2022/08/10 06:28:36;;;;;;;1.30;0.73;;;18.20;99.90;;;;;;5056584;28;20029;-74
2022/08/10 06:31:04;;;;;;;2.30;1.02;;;18.30;99.90;;;;;;5054706;28;20557;-74
2022/08/10 06:33:32;;;;;;;1.63;1.05;;;18.30;99.90;;;;;;5056083;28;20067;-74
2022/08/10 06:35:59;;;;;;;3.20;1.38;;;18.40;99.90;;;;;;5055871;28;20021;-74
2022/08/10 06:38:30;;;;;;;4.75;1.25;;;18.50;99.90;;;;;;5055784;28;20024;-74
2022/08/10 06:40:59;;;;;;;5.05;1.30;;;18.60;99.90;;;;;;5055734;28;20024;-73
2022/08/10 06:43:27;;;;;;;1.88;0.40;;;18.70;99.90;;;;;;5055729;28;20025;-74
2022/08/10 06:46:11;;;;;;;3.13;0.95;;;18.80;99.90;;;;;;5054317;28;20040;-74
2022/08/10 06:48:44;;;;;;;3.67;1.02;;;18.90;99.90;;;;;;5055858;28;20070;-74
2022/08/10 06:51:19;;;;;;;2.67;0.80;;;19.10;99.90;;;;;;5055819;28;20089;-74
2022/08/10 06:53:47;;;;;;;3.30;1.10;;;19.20;99.90;;;;;;5055893;28;20556;-74
2022/08/10 06:56:19;;;;;;;1.30;0.98;;;19.20;99.90;;;;;;5056050;28;20017;-74
2022/08/10 06:59:04;;;;;;;1.25;0.85;;;19.40;99.90;;;;;;5055414;28;20390;-74
2022/08/10 07:01:35;;;;;;;1.77;0.90;;;19.50;99.90;;;;;;5055817;28;20060;-74
2022/08/10 07:04:42;;;;;;;2.63;0.90;;;19.60;99.90;;;;;;5053981;28;20060;-74
2022/08/10 07:07:13;;;;;;;4.43;0.88;;;19.70;99.90;;;;;;5035007;28;20032;-74
2022/08/10 07:09:40;;;;;;;4.40;0.63;;;19.80;99.90;;;;;;5055221;28;20064;-74
2022/08/10 07:12:07;;;;;;;3.03;0.52;;;19.90;99.90;;;;;;5061097;22;20045;-87
2022/08/10 07:14:36;;;;;;;0.63;0.50;;;20.00;99.90;;;;;;5029394;22;20041;-71
2022/08/10 07:17:03;;;;;;;1.80;0.90;;;20.10;99.90;;;;;;5056688;28;20036;-72
2022/08/10 07:19:31;;;;;;;1.02;0.50;;;20.30;99.90;;;;;;5054453;28;20025;-72
2022/08/10 07:21:58;;;;;;;1.58;0.85;;;20.40;99.90;;;;;;5054036;28;20017;-71
2022/08/10 07:24:25;;;;;;;1.15;0.35;;;20.60;99.90;;;;;;5055279;28;20029;-71
2022/08/10 07:26:54;;;;;;;1.87;0.40;;;21.10;99.90;;;;;;5056336;28;20150;-71
2022/08/10 07:29:25;;;;;;;1.88;0.30;;;20.80;99.90;;;;;;5056258;28;20029;-71
2022/08/10 07:31:51;;;;;;;1.58;0.57;;;21.00;99.90;;;;;;5055810;28;20025;-71
2022/08/10 07:34:20;;;;;;;1.15;0.30;;;21.10;99.90;;;;;;5055980;28;20374;-72
2022/08/10 07:36:46;;;;;;;;;;;21.20;99.90;;;;;;5055605;28;20025;-72
2022/08/10 07:39:13;;;;;;;4.18;0.50;;;21.30;99.90;;;;;;5054684;28;20320;-72
2022/08/10 07:41:41;;;;;;;0.35;0.00;;;21.40;99.90;;;;;;5054434;28;20450;-72
2022/08/10 07:44:10;;;;;;;2.00;0.20;;;21.50;99.90;;;;;;5054591;28;20051;-73
2022/08/10 07:46:40;;;;;;;0.93;0.10;;;21.60;99.90;;;;;;5054488;28;20075;-72
2022/08/10 07:49:13;;;;;;;1.65;0.30;;;21.70;99.90;;;;;;5054550;28;20032;-77
2022/08/10 07:51:40;;;;;;;0.57;0.20;;;21.80;99.90;;;;;;5052513;28;20021;-71
2022/08/10 07:54:14;;;;;;;0.80;0.17;;;21.90;99.90;;;;;;5054071;28;20029;-71
2022/08/10 07:56:42;;;;;;;1.13;0.10;;;21.90;99.90;;;;;;5054810;28;20025;-70
2022/08/10 07:59:10;;;;;;;1.10;0.10;;;21.90;99.90;;;;;;5053842;28;20029;-70
2022/08/10 08:01:43;;;;;;;2.75;0.10;;;22.10;99.90;;;;;;5052749;28;20386;-71
2022/08/10 08:04:11;;;;;;;1.50;0.00;;;22.20;99.90;;;;;;5054118;28;20108;-71
2022/08/10 08:06:38;;;;;;;2.33;0.30;;;22.30;99.90;;;;;;5054573;28;20032;-71
2022/08/10 08:09:04;;;;;;;0.85;0.20;;;22.40;99.90;;;;;;5054087;28;20351;-71
2022/08/10 08:11:31;;;;;;;1.58;0.10;;;22.50;99.90;;;;;;5053830;28;20043;-71
2022/08/10 08:13:59;;;;;;;1.65;0.10;;;22.70;99.90;;;;;;5053917;28;20020;-71
2022/08/10 08:16:25;;;;;;;2.72;0.08;;;22.80;99.90;;;;;;5053921;28;20061;-71
2022/08/10 08:18:55;;;;;;;1.17;0.25;;;22.90;99.90;;;;;;5052621;28;20024;-71
2022/08/10 08:21:21;;;;;;;0.50;0.00;;;23.00;99.90;;;;;;5053792;28;20445;-71
2022/08/10 08:23:49;;;;;;;2.40;0.30;;;23.10;99.90;;;;;;5053859;28;20021;-71
2022/08/10 08:26:17;;;;;;;3.75;0.10;;;23.10;99.90;;;;;;5053701;28;20099;-71
2022/08/10 08:28:44;;;;;;;2.05;0.05;;;23.20;99.90;;;;;;5053634;28;20070;-72
2022/08/10 08:31:14;;;;;;;2.00;0.25;;;23.40;99.90;;;;;;5053777;28;20044;-70
2022/08/10 08:33:42;;;;;;;2.33;0.30;;;23.50;99.90;;;;;;5051183;28;20025;-70
2022/08/10 08:36:09;;;;;;;1.67;0.10;;;23.60;99.90;;;;;;5052996;28;20036;-70
2022/08/10 08:38:35;;;;;;;2.97;0.20;;;23.70;99.90;;;;;;5053072;28;20017;-70
2022/08/10 08:41:40;;;;;;;2.20;0.10;;;23.80;99.90;;;;;;5053663;28;20021;-70
2022/08/10 08:44:29;;;;;;;0.45;0.00;;;23.80;99.90;;;;;;5052397;28;20024;-73
2022/08/10 08:47:19;;;;;;;4.63;0.15;;;23.90;99.90;;;;;;5052314;28;20049;-71
2022/08/10 08:50:11;;;;;;;1.23;0.20;;;24.00;99.90;;;;;;5052739;28;20120;-71
2022/08/10 08:53:20;;;;;;;0.28;0.10;;;24.20;99.90;;;;;;5052440;28;20032;-71
2022/08/10 08:56:12;;;;;;;1.75;0.00;;;24.30;99.40;;;;;;5048743;28;20390;-71
2022/08/10 08:59:01;;;;;;;2.92;0.20;;;24.50;99.90;;;;;;5053567;28;20055;-71
2022/08/10 09:01:54;;;;;;;2.75;0.00;;;24.70;99.60;;;;;;5051887;28;20021;-71
2022/08/10 09:04:52;;;;;;;0.38;0.13;;;24.90;99.20;;;;;;5053358;28;20079;-73
2022/08/10 09:07:49;;;;;;;0.50;0.00;;;25.00;98.00;;;;;;5052009;28;20041;-71
2022/08/10 09:10:49;;;;;;;1.85;0.45;;;25.20;97.10;;;;;;5053308;28;20063;-73
2022/08/10 09:13:30;;;;;;;1.45;0.00;;;25.40;96.20;;;;;;5053219;28;20041;-73
2022/08/10 09:16:39;;;;;;;10.90;0.10;;;25.40;95.90;;;;;;5053198;28;20551;-73
2022/08/10 09:19:30;;;;;;;0.43;0.00;;;25.60;95.90;;;;;;5045036;28;20033;-74
2022/08/10 09:22:23;;;;;;;0.55;0.00;;;25.70;93.90;;;;;;5053249;28;20059;-74
2022/08/10 09:25:13;;;;;;;0.90;0.10;;;25.70;94.00;;;;;;5053674;28;20035;-74
2022/08/10 09:27:48;;;;;;;0.50;0.00;;;25.80;93.90;;;;;;5053207;28;20493;-73
2022/08/10 09:30:39;;;;;;;2.78;0.10;;;26.00;93.90;;;;;;5053126;28;20025;-74
2022/08/10 09:33:14;;;;;;;1.35;0.22;;;26.00;94.00;;;;;;5053024;28;20029;-74
2022/08/10 09:36:06;;;;;;;0.25;0.10;;;26.10;93.10;;;;;;5052932;28;20053;-73
2022/08/10 09:38:55;;;;;;;1.08;0.05;;;26.10;93.50;;;;;;5053006;28;20017;-74
2022/08/10 09:41:45;;;;;;;1.02;0.08;;;26.30;92.80;;;;;;5052846;28;20103;-73
2022/08/10 09:44:33;;;;;;;3.20;0.45;;;26.40;92.50;;;;;;5051619;28;20025;-74
2022/08/10 09:47:18;;;;;;;0.20;0.00;;;26.50;91.80;;;;;;5054959;28;20052;-73
2022/08/10 09:50:07;;;;;;;0.40;0.00;;;26.60;91.10;;;;;;5056719;28;20056;-74
2022/08/10 09:53:07;;;;;;;1.48;0.00;;;26.60;89.70;;;;;;5056619;28;20125;-74
2022/08/10 09:55:47;;;;;;;0.57;0.20;;;26.70;90.60;;;;;;5056573;28;20067;-74
2022/08/10 09:58:40;;;;;;;7.75;0.13;;;26.90;89.90;;;;;;5055273;28;20025;-74
2022/08/10 10:01:19;;;;;;;0.52;0.00;;;27.00;88.60;;;;;;5056450;28;20025;-73
2022/08/10 10:03:56;;;;;;;0.25;0.00;;;27.20;88.40;;;;;;5056805;28;20025;-73
2022/08/10 10:06:36;;;;;;;0.88;0.00;;;27.30;86.00;;;;;;5056442;28;20393;-74
2022/08/10 10:09:09;;;;;;;0.00;0.00;;;27.40;82.40;;;;;;5056469;28;20540;-74
2022/08/10 10:12:06;;;;;;;2.25;0.10;;;27.60;80.60;;;;;;5056597;28;20021;-74
2022/08/10 10:18:06;;;;;;;0.00;0.00;;;27.80;78.10;;;;;;5056284;28;20405;-74
2022/08/10 10:20:40;;;;;;;0.77;0.00;;;28.00;75.20;;;;;;5054773;28;20037;-74
2022/08/10 10:23:40;;;;;;;0.32;0.00;;;28.20;76.00;;;;;;5051038;28;20013;-74
2022/08/10 10:26:40;;;;;;;0.90;0.00;;;28.30;72.60;;;;;;5055500;28;20032;-74
2022/08/10 10:29:24;;;;;;;4.65;0.47;;;28.40;72.80;;;;;;5054588;28;20013;-74
2022/08/10 10:32:26;;;;;;;1.40;0.20;;;28.50;71.30;;;;;;5055839;28;20466;-74
2022/08/10 10:35:18;;;;;;;1.33;0.00;;;28.60;71.30;;;;;;5053704;28;20393;-74
2022/08/10 10:37:45;;;;;;;1.55;0.00;;;28.80;68.90;;;;;;5055989;28;20025;-74
2022/08/10 10:40:13;;;;;;;0.00;0.00;;;28.90;68.80;;;;;;5055851;28;20055;-74
2022/08/10 10:43:14;;;;;;;1.48;0.00;;;29.00;67.80;;;;;;5055882;28;20017;-75
2022/08/10 10:45:57;;;;;;;0.50;0.00;;;29.20;68.70;;;;;;5057069;28;20025;-71
2022/08/10 10:48:40;;;;;;;1.85;0.00;;;29.30;68.60;;;;;;5055763;28;20023;-74
2022/08/10 10:51:13;;;;;;;0.63;0.17;;;29.50;68.60;;;;;;5055613;28;20025;-74
2022/08/10 10:53:46;;;;;;;0.63;0.00;;;29.70;66.00;;;;;;5055573;28;20036;-74
2022/08/10 10:56:56;;;;;;;1.25;0.00;;;29.80;65.40;;;;;;5055539;28;20152;-74
2022/08/10 10:59:49;;;;;;;0.80;0.00;;;29.80;64.30;;;;;;5055741;28;20022;-74
2022/08/10 11:03:00;;;;;;;1.75;0.10;;;29.90;64.80;;;;;;5055641;28;20021;-74
2022/08/10 11:05:51;;;;;;;0.68;0.00;;;30.10;64.90;;;;;;5034110;28;20082;-74
2022/08/10 11:08:28;;;;;;;0.57;0.10;;;30.30;62.90;;;;;;5055742;28;20025;-74
2022/08/10 11:10:59;;;;;;;0.00;0.00;;;30.40;62.80;;;;;;5055809;28;20023;-74
2022/08/10 11:14:04;;;;;;;0.35;0.10;;;30.50;62.90;;;;;;5056295;28;20580;-74
2022/08/10 11:16:43;;;;;;;1.40;0.00;;;30.70;60.20;;;;;;5055195;28;20034;-74
2022/08/10 11:19:21;;;;;;;0.47;0.00;;;30.90;61.00;;;;;;5055134;28;20029;-74
2022/08/10 11:21:56;;;;;;;0.28;0.00;;;31.00;59.40;;;;;;5055147;28;20533;-74
2022/08/10 11:24:43;;;;;;;0.30;0.00;;;31.20;60.20;;;;;;5053801;28;20033;-74
2022/08/10 11:27:27;;;;;;;0.28;0.00;;;31.40;59.80;;;;;;5055282;28;20029;-74
2022/08/10 11:30:12;;;;;;;3.13;0.00;;;31.50;58.50;;;;;;5055239;28;20408;-74
2022/08/10 11:32:43;;;;;;;0.43;0.00;;;31.60;57.20;;;;;;5055451;28;20032;-74
2022/08/10 11:35:24;;;;;;;2.42;0.00;;;31.70;57.00;;;;;;5054764;28;20108;-74
2022/08/10 11:38:06;;;;;;;1.08;0.00;;;31.70;56.30;;;;;;5054803;28;20549;-74
2022/08/10 11:40:43;;;;;;;4.95;0.00;;;31.70;56.10;;;;;;5054617;28;20537;-74
2022/08/10 11:43:22;;;;;;;0.10;0.00;;;31.90;56.20;;;;;;5054742;28;20036;-74
2022/08/10 11:46:10;;;;;;;0.00;0.00;;;32.10;55.60;;;;;;5055147;28;20025;-74
2022/08/10 11:48:48;;;;;;;1.88;0.00;;;32.20;54.20;;;;;;5054940;28;20417;-74
2022/08/10 11:51:43;;;;;;;0.00;0.00;;;32.40;53.70;;;;;;5054470;28;20028;-74
2022/08/10 11:54:27;;;;;;;0.10;0.00;;;32.70;52.80;;;;;;5054401;28;20029;-74
2022/08/10 11:56:55;;;;;;;1.10;0.00;;;32.80;51.30;;;;;;5053131;28;20029;-74
2022/08/10 12:02:12;;;;;;;0.88;0.00;;;33.20;49.40;;;;;;5054681;28;20028;-74
2022/08/10 12:04:40;;;;;;;0.65;0.00;;;33.20;48.00;;;;;;5054208;28;20134;-74
2022/08/10 12:07:07;;;;;;;0.82;0.00;;;33.40;48.20;;;;;;5053022;28;20431;-74
2022/08/10 12:09:33;;;;;;;2.75;0.00;;;33.40;46.90;;;;;;5053562;28;20391;-74
2022/08/10 12:12:00;;;;;;;0.25;0.00;;;33.40;45.60;;;;;;5058159;28;20484;-74
2022/08/10 12:14:52;;;;;;;0.00;0.00;;;33.60;47.20;;;;;;5073812;28;20029;-74
2022/08/10 12:17:42;;;;;;;5.68;0.00;;;33.80;45.60;;;;;;5073920;28;20512;-74
2022/08/10 12:20:40;;;;;;;0.10;0.00;;;33.90;45.00;;;;;;5073721;28;20103;-74
2022/08/10 12:23:42;;;;;;;0.00;0.00;;;33.80;43.60;;;;;;5073383;28;20044;-74
2022/08/10 12:26:12;;;;;;;0.52;0.00;;;33.90;42.10;;;;;;5073931;28;20076;-74
2022/08/10 12:29:05;;;;;;;2.05;0.00;;;33.90;44.40;;;;;;5073947;28;20077;-74
2022/08/10 12:31:40;;;;;;;0.17;0.00;;;34.20;44.30;;;;;;5073757;28;20107;-74
2022/08/10 12:34:14;;;;;;;0.10;0.00;;;34.60;45.40;;;;;;5072308;28;20025;-74
2022/08/10 12:36:51;;;;;;;0.00;0.00;;;34.70;43.10;;;;;;5073189;28;20071;-74
2022/08/10 12:39:26;;;;;;;0.68;0.00;;;34.80;43.30;;;;;;5073538;28;20043;-74
2022/08/10 12:41:59;;;;;;;0.20;0.00;;;34.80;42.00;;;;;;5073420;28;20499;-72
2022/08/10 12:45:04;;;;;;;5.05;0.30;;;34.90;42.00;;;;;;5075410;28;20024;-71
2022/08/10 12:47:58;;;;;;;0.63;0.00;;;35.00;42.10;;;;;;5075126;28;20025;-71
2022/08/10 12:50:58;;;;;;;0.20;0.00;;;35.10;41.50;;;;;;5075214;28;20028;-71
2022/08/10 12:53:46;;;;;;;0.00;0.00;;;35.10;41.80;;;;;;5076686;28;20056;-71
2022/08/10 12:56:19;;;;;;;0.95;0.00;;;35.50;40.00;;;;;;5075636;28;20432;-73
2022/08/10 12:58:45;;;;;;;0.75;0.00;;;35.70;40.20;;;;;;5073736;28;20022;-73
2022/08/10 13:01:12;;;;;;;0.00;0.00;;;35.90;40.00;;;;;;5072120;28;20013;-72
2022/08/10 13:03:38;;;;;;;1.15;0.00;;;36.20;39.90;;;;;;5073879;28;20025;-74
2022/08/10 13:06:08;;;;;;;0.00;0.00;;;36.00;38.50;;;;;;5073484;28;20032;-74
2022/08/10 13:11:22;;;;;;;0.25;0.00;;;36.30;40.20;;;;;;5076184;28;20499;-73
2022/08/10 13:13:51;;;;;;;0.05;0.00;;;36.50;39.20;;;;;;5074136;28;20500;-76
2022/08/10 13:16:21;;;;;;;4.10;0.00;;;36.80;39.60;;;;;;5074104;28;20029;-75
2022/08/10 13:18:50;;;;;;;0.43;0.00;;;36.90;38.70;;;;;;5073414;28;20024;-72
2022/08/10 13:21:16;;;;;;;0.45;0.05;;;36.80;38.70;;;;;;5073822;28;20021;-73
2022/08/10 13:23:55;;;;;;;0.50;0.00;;;36.80;39.10;;;;;;5077193;28;20051;-72
2022/08/10 13:26:24;;;;;;;1.33;0.00;;;36.70;38.10;;;;;;5077253;28;20034;-72
2022/08/10 13:28:58;;;;;;;0.88;0.17;;;36.90;39.10;;;;;;5075804;28;20509;-72
2022/08/10 13:31:28;;;;;;;0.00;0.00;;;37.00;38.60;;;;;;5077663;28;20016;-72
2022/08/10 13:33:58;;;;;;;4.03;0.00;;;37.00;38.30;;;;;;5077346;28;20358;-72